createdAt,value
2023-05-21T00:00:56.883Z,1009.06
2023-05-21T00:01:57.706Z,1009.09
2023-05-21T00:02:58.616Z,1009.09
2023-05-21T00:03:59.853Z,1009.06
2023-05-21T00:05:00.486Z,1009.05
2023-05-21T00:06:01.363Z,1009.07
2023-05-21T00:07:02.203Z,1009.06
2023-05-21T00:08:03.069Z,1009.11
2023-05-21T00:09:03.987Z,1009.06
2023-05-21T00:10:04.859Z,1009.09
2023-05-21T00:11:05.742Z,1009.01
2023-05-21T00:12:06.651Z,1009.00
2023-05-21T00:13:07.514Z,1009.05
2023-05-21T00:14:08.397Z,1009.04
2023-05-21T00:15:09.285Z,1009.08
2023-05-21T00:16:10.211Z,1009.04
2023-05-21T00:17:11.052Z,1009.04
2023-05-21T00:18:12.033Z,1008.99
2023-05-21T00:19:12.958Z,1009.05
2023-05-21T00:20:13.868Z,1008.99
2023-05-21T00:21:14.775Z,1008.96
2023-05-21T00:22:15.644Z,1009.00
2023-05-21T00:23:16.515Z,1008.98
2023-05-21T00:24:17.406Z,1009.04
2023-05-21T00:25:18.279Z,1009.00
2023-05-21T00:26:19.156Z,1008.94
2023-05-21T00:27:20.061Z,1008.96
2023-05-21T00:28:20.919Z,1008.97
2023-05-21T00:29:21.815Z,1008.94
2023-05-21T00:30:22.657Z,1008.91
2023-05-21T00:31:23.616Z,1008.92
2023-05-21T00:32:24.522Z,1008.92
2023-05-21T00:33:25.393Z,1008.88
2023-05-21T00:34:26.286Z,1008.90
2023-05-21T00:35:27.151Z,1008.94
2023-05-21T00:36:28.049Z,1008.93
2023-05-21T00:37:28.892Z,1008.92
2023-05-21T00:38:29.795Z,1008.94
2023-05-21T00:39:30.667Z,1008.94
2023-05-21T00:40:31.544Z,1008.91
2023-05-21T00:41:32.410Z,1008.92
2023-05-21T00:42:33.294Z,1008.94
2023-05-21T00:43:34.183Z,1008.87
2023-05-21T00:44:35.064Z,1008.80
2023-05-21T00:45:36.121Z,1008.82
2023-05-21T00:46:36.675Z,1008.85
2023-05-21T00:47:37.569Z,1008.85
2023-05-21T00:48:38.502Z,1008.78
2023-05-21T00:49:39.372Z,1008.75
2023-05-21T00:50:40.250Z,1008.79
2023-05-21T00:51:41.146Z,1008.79
2023-05-21T00:52:42.379Z,1008.77
2023-05-21T00:53:42.845Z,1008.76
2023-05-21T00:54:43.702Z,1008.73
2023-05-21T00:55:44.546Z,1008.72
2023-05-21T00:56:45.429Z,1008.70
2023-05-21T00:57:46.311Z,1008.71
2023-05-21T00:58:47.293Z,1008.72
2023-05-21T00:59:48.164Z,1008.71
2023-05-21T01:00:49.070Z,1008.65
2023-05-21T01:01:50.078Z,1008.70
2023-05-21T01:02:50.566Z,1008.65
2023-05-21T01:03:50.990Z,1008.60
2023-05-21T01:04:51.864Z,1008.65
2023-05-21T01:05:52.732Z,1008.70
2023-05-21T01:06:53.675Z,1008.67
2023-05-21T01:07:54.517Z,1008.68
2023-05-21T01:08:55.401Z,1008.65
2023-05-21T01:09:56.266Z,1008.64
2023-05-21T01:10:57.150Z,1008.61
2023-05-21T01:11:58.009Z,1008.61
2023-05-21T01:12:58.904Z,1008.59
2023-05-21T01:13:59.775Z,1008.62
2023-05-21T01:15:00.641Z,1008.59
2023-05-21T01:16:01.523Z,1008.58
2023-05-21T01:17:02.432Z,1008.56
2023-05-21T01:18:03.332Z,1008.53
2023-05-21T01:19:04.307Z,1008.50
2023-05-21T01:20:06.777Z,1008.58
2023-05-21T01:21:05.830Z,1008.55
2023-05-21T01:22:06.710Z,1008.55
2023-05-21T01:23:07.562Z,1008.55
2023-05-21T01:24:08.475Z,1008.50
2023-05-21T01:25:09.356Z,1008.47
2023-05-21T01:26:10.267Z,1008.49
2023-05-21T01:27:11.109Z,1008.50
2023-05-21T01:28:11.974Z,1008.47
2023-05-21T01:29:12.895Z,1008.48
2023-05-21T01:30:13.760Z,1008.45
2023-05-21T01:31:14.631Z,1008.44
2023-05-21T01:32:15.512Z,1008.42
2023-05-21T01:33:16.445Z,1008.37
2023-05-21T01:34:17.415Z,1008.39
2023-05-21T01:35:18.008Z,1008.38
2023-05-21T01:36:18.957Z,1008.38
2023-05-21T01:37:19.905Z,1008.35
2023-05-21T01:40:35.389Z,1008.33
2023-05-21T01:41:36.235Z,1008.32
2023-05-21T01:42:37.272Z,1008.32
2023-05-21T01:43:38.092Z,1008.34
2023-05-21T01:44:38.971Z,1008.29
2023-05-21T01:45:39.865Z,1008.25
2023-05-21T01:46:40.844Z,1008.34
2023-05-21T01:47:41.780Z,1008.31
2023-05-21T01:48:42.649Z,1008.32
2023-05-21T01:49:43.595Z,1008.30
2023-05-21T01:50:44.472Z,1008.28
2023-05-21T01:51:45.384Z,1008.26
2023-05-21T01:52:46.458Z,1008.26
2023-05-21T01:53:47.095Z,1008.20
2023-05-21T01:54:47.589Z,1008.25
2023-05-21T01:55:48.040Z,1008.26
2023-05-21T01:56:48.878Z,1008.27
2023-05-21T01:57:49.757Z,1008.26
2023-05-21T01:58:50.651Z,1008.26
2023-05-21T01:59:51.531Z,1008.32
2023-05-21T02:00:52.408Z,1008.24
2023-05-21T02:01:53.293Z,1008.26
2023-05-21T02:02:54.230Z,1008.28
2023-05-21T02:03:55.220Z,1008.29
2023-05-21T02:04:55.607Z,1008.30
2023-05-21T02:05:56.509Z,1008.21
2023-05-21T02:06:57.380Z,1008.24
2023-05-21T02:07:58.290Z,1008.25
2023-05-21T02:08:59.145Z,1008.26
2023-05-21T02:10:00.027Z,1008.28
2023-05-21T02:11:00.925Z,1008.24
2023-05-21T02:12:01.835Z,1008.22
2023-05-21T02:13:02.731Z,1008.23
2023-05-21T02:14:03.613Z,1008.23
2023-05-21T02:15:04.466Z,1008.22
2023-05-21T02:16:05.416Z,1008.21
2023-05-21T02:17:06.290Z,1008.20
2023-05-21T02:18:07.240Z,1008.22
2023-05-21T02:19:08.156Z,1008.22
2023-05-21T02:20:09.031Z,1008.19
2023-05-21T02:21:09.941Z,1008.16
2023-05-21T02:22:10.789Z,1008.19
2023-05-21T02:23:11.697Z,1008.16
2023-05-21T02:24:12.551Z,1008.16
2023-05-21T02:25:13.433Z,1008.12
2023-05-21T02:26:14.329Z,1008.15
2023-05-21T02:27:15.258Z,1008.14
2023-05-21T02:28:16.150Z,1008.19
2023-05-21T02:29:17.009Z,1008.19
2023-05-21T02:30:17.873Z,1008.19
2023-05-21T02:31:18.765Z,1008.27
2023-05-21T02:32:19.629Z,1008.20
2023-05-21T02:33:20.482Z,1008.23
2023-05-21T02:34:21.448Z,1008.23
2023-05-21T02:35:21.841Z,1008.22
2023-05-21T02:36:22.722Z,1008.20
2023-05-21T02:37:23.594Z,1008.21
2023-05-21T02:38:24.486Z,1008.21
2023-05-21T02:39:25.377Z,1008.17
2023-05-21T02:40:26.298Z,1008.16
2023-05-21T02:41:27.147Z,1008.18
2023-05-21T02:42:28.025Z,1008.20
2023-05-21T02:43:28.938Z,1008.18
2023-05-21T02:44:29.828Z,1008.23
2023-05-21T02:45:30.746Z,1008.24
2023-05-21T02:46:31.636Z,1008.20
2023-05-21T02:47:32.564Z,1008.21
2023-05-21T02:48:33.021Z,1008.18
2023-05-21T02:49:33.883Z,1008.22
2023-05-21T02:50:34.761Z,1008.20
2023-05-21T02:51:35.690Z,1008.17
2023-05-21T02:52:36.526Z,1008.17
2023-05-21T02:53:37.426Z,1008.16
2023-05-21T02:54:37.966Z,1008.15
2023-05-21T02:55:39.027Z,1008.18
2023-05-21T02:56:39.468Z,1008.14
2023-05-21T02:57:40.353Z,1008.12
2023-05-21T02:58:41.263Z,1008.14
2023-05-21T02:59:42.142Z,1008.09
2023-05-21T03:00:42.996Z,1008.12
2023-05-21T03:01:43.995Z,1008.05
2023-05-21T03:02:44.470Z,1008.09
2023-05-21T03:03:44.938Z,1008.04
2023-05-21T03:04:45.905Z,1008.07
2023-05-21T03:05:46.825Z,1008.09
2023-05-21T03:06:47.670Z,1008.04
2023-05-21T03:07:48.573Z,1008.05
2023-05-21T03:08:49.460Z,1008.08
2023-05-21T03:09:50.321Z,1008.05
2023-05-21T03:10:51.271Z,1008.02
2023-05-21T03:11:52.086Z,1008.03
2023-05-21T03:12:52.975Z,1008.02
2023-05-21T03:13:53.887Z,1008.03
2023-05-21T03:14:54.770Z,1008.00
2023-05-21T03:15:55.625Z,1008.02
2023-05-21T03:16:56.548Z,1008.00
2023-05-21T03:17:57.429Z,1007.97
2023-05-21T03:18:58.324Z,1007.99
2023-05-21T03:19:59.222Z,1007.92
2023-05-21T03:21:00.149Z,1007.95
2023-05-21T03:22:00.998Z,1007.93
2023-05-21T03:23:01.913Z,1007.91
2023-05-21T03:24:02.790Z,1007.91
2023-05-21T03:25:03.476Z,1007.92
2023-05-21T03:26:04.332Z,1007.90
2023-05-21T03:27:05.302Z,1007.92
2023-05-21T03:28:06.159Z,1007.92
2023-05-21T03:29:07.008Z,1007.88
2023-05-21T03:30:07.886Z,1007.89
2023-05-21T03:31:08.819Z,1007.90
2023-05-21T03:32:09.733Z,1007.90
2023-05-21T03:33:10.624Z,1007.90
2023-05-21T03:34:11.517Z,1007.93
2023-05-21T03:35:12.445Z,1007.93
2023-05-21T03:36:13.274Z,1007.93
2023-05-21T03:37:14.173Z,1007.95
2023-05-21T03:38:15.036Z,1007.97
2023-05-21T03:39:15.956Z,1007.96
2023-05-21T03:40:16.808Z,1007.99
2023-05-21T03:41:17.697Z,1007.98
2023-05-21T03:42:18.572Z,1007.99
2023-05-21T03:43:19.428Z,1008.04
2023-05-21T03:44:20.316Z,1008.01
2023-05-21T03:45:21.247Z,1008.02
2023-05-21T03:46:22.124Z,1008.00
2023-05-21T03:47:23.064Z,1008.01
2023-05-21T03:48:23.932Z,1008.04
2023-05-21T03:49:24.784Z,1008.03
2023-05-21T03:50:25.682Z,1008.01
2023-05-21T03:51:26.535Z,1008.03
2023-05-21T03:52:27.415Z,1008.03
2023-05-21T03:53:28.278Z,1007.99
2023-05-21T03:54:29.158Z,1007.99
2023-05-21T03:55:30.060Z,1008.01
2023-05-21T03:56:30.900Z,1008.03
2023-05-21T03:57:31.844Z,1008.05
2023-05-21T03:58:32.699Z,1008.06
2023-05-21T03:59:33.590Z,1008.08
2023-05-21T04:00:34.436Z,1008.11
2023-05-21T04:01:35.354Z,1008.10
2023-05-21T04:02:36.234Z,1008.11
2023-05-21T04:03:39.322Z,1008.09
2023-05-21T04:04:37.703Z,1008.08
2023-05-21T04:05:38.622Z,1008.08
2023-05-21T04:06:39.112Z,1008.09
2023-05-21T04:07:39.960Z,1008.06
2023-05-21T04:08:40.881Z,1008.07
2023-05-21T04:09:41.740Z,1008.05
2023-05-21T04:10:42.609Z,1008.06
2023-05-21T04:11:43.466Z,1008.03
2023-05-21T04:12:44.339Z,1008.04
2023-05-21T04:13:45.217Z,1008.08
2023-05-21T04:14:46.117Z,1008.08
2023-05-21T04:15:47.061Z,1008.09
2023-05-21T04:16:47.965Z,1008.09
2023-05-21T04:17:48.861Z,1008.10
2023-05-21T04:18:49.745Z,1008.10
2023-05-21T04:19:50.610Z,1008.13
2023-05-21T04:20:51.494Z,1008.15
2023-05-21T04:21:52.366Z,1008.16
2023-05-21T04:22:53.273Z,1008.19
2023-05-21T04:23:54.191Z,1008.20
2023-05-21T04:24:55.042Z,1008.18
2023-05-21T04:25:55.902Z,1008.21
2023-05-21T04:26:56.777Z,1008.21
2023-05-21T04:27:57.683Z,1008.21
2023-05-21T04:28:58.604Z,1008.21
2023-05-21T04:29:59.473Z,1008.18
2023-05-21T04:31:00.380Z,1008.21
2023-05-21T04:32:01.223Z,1008.21
2023-05-21T04:33:02.187Z,1008.22
2023-05-21T04:34:03.055Z,1008.22
2023-05-21T04:35:03.921Z,1008.27
2023-05-21T04:36:04.888Z,1008.26
2023-05-21T04:37:05.827Z,1008.24
2023-05-21T04:38:06.701Z,1008.26
2023-05-21T04:39:07.566Z,1008.27
2023-05-21T04:40:08.477Z,1008.27
2023-05-21T04:41:09.346Z,1008.24
2023-05-21T04:42:10.210Z,1008.23
2023-05-21T04:43:11.088Z,1008.23
2023-05-21T04:44:12.114Z,1008.24
2023-05-21T04:45:13.052Z,1008.25
2023-05-21T04:46:13.945Z,1008.22
2023-05-21T04:47:15.028Z,1008.25
2023-05-21T04:48:15.497Z,1008.26
2023-05-21T04:49:16.336Z,1008.28
2023-05-21T04:50:17.199Z,1008.28
2023-05-21T04:51:18.080Z,1008.28
2023-05-21T04:52:18.953Z,1008.26
2023-05-21T04:53:19.850Z,1008.26
2023-05-21T04:54:20.734Z,1008.25
2023-05-21T04:55:21.640Z,1008.25
2023-05-21T04:56:22.592Z,1008.25
2023-05-21T04:57:23.442Z,1008.23
2023-05-21T04:58:24.330Z,1008.22
2023-05-21T04:59:25.216Z,1008.20
2023-05-21T05:00:26.124Z,1008.17
2023-05-21T05:01:27.252Z,1008.16
2023-05-21T05:02:27.770Z,1008.16
2023-05-21T05:03:28.697Z,1008.17
2023-05-21T05:04:29.620Z,1008.16
2023-05-21T05:05:30.475Z,1008.15
2023-05-21T05:06:31.372Z,1008.14
2023-05-21T05:07:32.353Z,1008.13
2023-05-21T05:08:34.235Z,1008.10
2023-05-21T05:09:34.198Z,1008.09
2023-05-21T05:10:35.094Z,1008.09
2023-05-21T05:11:35.951Z,1008.10
2023-05-21T05:12:36.807Z,1008.09
2023-05-21T05:13:37.664Z,1008.09
2023-05-21T05:14:38.580Z,1008.08
2023-05-21T05:15:39.449Z,1008.08
2023-05-21T05:16:40.354Z,1008.08
2023-05-21T05:17:41.261Z,1008.06
2023-05-21T05:18:42.243Z,1008.05
2023-05-21T05:19:43.148Z,1008.04
2023-05-21T05:20:44.052Z,1008.02
2023-05-21T05:21:44.949Z,1008.01
2023-05-21T05:22:45.812Z,1008.00
2023-05-21T05:23:46.672Z,1008.00
2023-05-21T05:24:47.544Z,1008.02
2023-05-21T05:25:48.441Z,1007.98
2023-05-21T05:26:49.294Z,1008.00
2023-05-21T05:27:50.168Z,1007.99
2023-05-21T05:28:51.039Z,1007.99
2023-05-21T05:29:52.154Z,1007.98
2023-05-21T05:30:52.720Z,1007.98
2023-05-21T05:33:50.247Z,1007.96
2023-05-21T05:34:51.416Z,1007.93
2023-05-21T06:17:57.208Z,1007.91
2023-05-21T06:18:58.139Z,1007.92
2023-05-21T06:19:59.078Z,1007.95
2023-05-21T06:20:59.993Z,1007.93
2023-05-21T06:22:00.888Z,1007.92
2023-05-21T06:23:01.765Z,1007.90
2023-05-21T06:24:02.648Z,1007.92
2023-05-21T06:25:03.531Z,1007.91
2023-05-21T06:26:04.421Z,1007.89
2023-05-21T06:27:05.294Z,1007.91
2023-05-21T06:28:06.210Z,1007.89
2023-05-21T06:29:07.059Z,1007.88
2023-05-21T06:30:07.932Z,1007.86
2023-05-21T06:31:08.787Z,1007.88
2023-05-21T06:32:09.697Z,1007.90
2023-05-21T06:33:10.645Z,1007.88
2023-05-21T06:34:11.095Z,1007.90
2023-05-21T06:35:11.599Z,1007.89
2023-05-21T06:36:12.472Z,1007.88
2023-05-21T06:37:13.523Z,1007.89
2023-05-21T06:38:13.898Z,1007.89
2023-05-21T06:39:14.822Z,1007.91
2023-05-21T06:40:15.775Z,1007.92
2023-05-21T06:41:16.828Z,1007.92
2023-05-21T06:42:17.298Z,1007.91
2023-05-21T06:43:18.163Z,1007.93
2023-05-21T06:44:19.025Z,1007.90
2023-05-21T06:45:19.899Z,1007.86
2023-05-21T06:46:20.831Z,1007.86
2023-05-21T06:47:21.680Z,1007.84
2023-05-21T06:48:22.565Z,1007.82
2023-05-21T06:49:23.447Z,1007.85
2023-05-21T06:50:24.324Z,1007.84
2023-05-21T06:51:25.199Z,1007.87
2023-05-21T06:52:26.078Z,1007.86
2023-05-21T06:53:26.983Z,1007.84
2023-05-21T06:54:27.849Z,1007.82
2023-05-21T06:55:28.725Z,1007.83
2023-05-21T06:56:29.607Z,1007.82
2023-05-21T06:57:30.544Z,1007.85
2023-05-21T06:58:31.439Z,1007.85
2023-05-21T06:59:32.372Z,1007.83
2023-05-21T07:00:33.289Z,1007.84
2023-05-21T07:01:34.216Z,1007.86
2023-05-21T07:04:33.639Z,1007.84
2023-05-21T07:05:35.978Z,1007.81
2023-05-21T07:10:05.183Z,1007.74
2023-05-21T07:11:06.058Z,1007.74
2023-05-21T07:12:06.960Z,1007.76
2023-05-21T07:13:07.915Z,1007.77
2023-05-21T07:14:08.764Z,1007.77
2023-05-21T07:15:09.652Z,1007.77
2023-05-21T07:16:10.553Z,1007.76
2023-05-21T07:17:11.551Z,1007.76
2023-05-21T07:18:12.443Z,1007.77
2023-05-21T07:19:13.362Z,1007.77
2023-05-21T07:20:14.209Z,1007.76
2023-05-21T07:21:15.091Z,1007.75
2023-05-21T07:22:15.993Z,1007.76
2023-05-21T07:23:16.887Z,1007.77
2023-05-21T07:24:17.750Z,1007.75
2023-05-21T07:25:18.651Z,1007.74
2023-05-21T07:26:19.529Z,1007.74
2023-05-21T07:27:25.660Z,1007.75
2023-05-21T07:28:22.188Z,1007.75
2023-05-21T07:29:22.086Z,1007.74
2023-05-21T07:30:22.968Z,1007.74
2023-05-21T07:31:23.921Z,1007.70
2023-05-21T07:32:24.391Z,1007.70
2023-05-21T07:33:25.263Z,1007.69
2023-05-21T07:34:26.180Z,1007.73
2023-05-21T07:49:51.742Z,1007.83
2023-05-21T07:50:52.284Z,1007.85
2023-05-21T07:51:52.846Z,1007.84
2023-05-21T07:52:53.613Z,1007.84
2023-05-21T07:53:55.305Z,1007.86
2023-05-21T07:54:56.436Z,1007.86
2023-05-21T07:55:55.273Z,1007.87
2023-05-21T07:56:56.189Z,1007.86
2023-05-21T07:57:57.094Z,1007.87
2023-05-21T07:58:58.033Z,1007.88
2023-05-21T07:59:58.915Z,1007.89
2023-05-21T08:00:59.814Z,1007.91
2023-05-21T08:02:00.721Z,1007.91
2023-05-21T08:03:01.676Z,1007.90
2023-05-21T08:04:02.686Z,1007.91
2023-05-21T08:05:03.400Z,1007.91
2023-05-21T08:06:03.838Z,1007.92
2023-05-21T08:07:04.717Z,1007.92
2023-05-21T08:08:05.609Z,1007.90
2023-05-21T08:09:06.468Z,1007.88
2023-05-21T08:10:07.384Z,1007.89
2023-05-21T08:11:08.287Z,1007.90
2023-05-21T08:12:09.167Z,1007.91
2023-05-21T08:13:10.010Z,1007.93
2023-05-21T08:14:10.903Z,1007.94
2023-05-21T08:15:11.809Z,1007.95
2023-05-21T08:16:12.712Z,1007.96
2023-05-21T08:17:13.569Z,1007.95
2023-05-21T08:18:14.446Z,1007.96
2023-05-21T08:19:15.352Z,1007.97
2023-05-21T08:20:16.272Z,1007.97
2023-05-21T08:21:17.151Z,1007.97
2023-05-21T08:22:18.013Z,1007.99
2023-05-21T08:23:19.006Z,1007.99
2023-05-21T08:24:19.857Z,1008.01
2023-05-21T08:25:20.736Z,1008.00
2023-05-21T08:26:21.619Z,1007.99
2023-05-21T08:27:22.549Z,1007.98
2023-05-21T08:28:23.450Z,1007.97
2023-05-21T08:29:24.295Z,1007.96
2023-05-21T08:30:25.162Z,1007.95
2023-05-21T08:31:26.157Z,1007.94
2023-05-21T08:32:27.093Z,1007.93
2023-05-21T08:33:27.929Z,1007.94
2023-05-21T08:34:28.847Z,1007.94
2023-05-21T08:35:29.770Z,1007.94
2023-05-21T08:36:30.694Z,1007.92
2023-05-21T08:37:31.566Z,1007.93
2023-05-21T08:38:32.620Z,1007.93
2023-05-21T08:39:33.058Z,1007.94
2023-05-21T08:40:33.929Z,1007.94
2023-05-21T08:41:34.878Z,1007.93
2023-05-21T08:42:37.396Z,1007.93
2023-05-21T08:43:36.874Z,1007.91
2023-05-21T08:44:38.227Z,1007.90
2023-05-21T08:45:38.699Z,1007.90
2023-05-21T08:46:39.014Z,1007.91
2023-05-21T08:47:39.904Z,1007.92
2023-05-21T08:48:40.769Z,1007.91
2023-05-21T08:49:41.638Z,1007.91
2023-05-21T08:50:42.551Z,1007.89
2023-05-21T08:51:43.427Z,1007.88
2023-05-21T08:52:44.340Z,1007.87
2023-05-21T08:53:45.184Z,1007.83
2023-05-21T08:54:46.097Z,1007.82
2023-05-21T08:55:46.963Z,1007.79
2023-05-21T08:56:47.903Z,1007.80
2023-05-21T08:57:48.798Z,1007.79
2023-05-21T08:58:49.690Z,1007.76
2023-05-21T08:59:50.609Z,1007.74
2023-05-21T09:00:51.601Z,1007.73
2023-05-21T09:01:52.278Z,1007.70
2023-05-21T09:02:52.827Z,1007.68
2023-05-21T09:05:24.526Z,1007.62
2023-05-21T09:06:25.538Z,1007.59
2023-05-21T09:07:26.241Z,1007.61
2023-05-21T09:08:27.437Z,1007.60
2023-05-21T09:09:27.362Z,1007.61
2023-05-21T09:10:28.201Z,1007.60
2023-05-21T09:11:29.107Z,1007.60
2023-05-21T09:12:29.951Z,1007.60
2023-05-21T09:13:30.833Z,1007.62
2023-05-21T09:14:31.753Z,1007.62
2023-05-21T09:15:32.633Z,1007.63
2023-05-21T09:16:33.627Z,1007.63
2023-05-21T09:17:34.056Z,1007.63
2023-05-21T09:18:34.932Z,1007.62
2023-05-21T09:19:35.976Z,1007.61
2023-05-21T09:20:36.777Z,1007.61
2023-05-21T09:21:38.198Z,1007.59
2023-05-21T09:22:38.049Z,1007.60
2023-05-21T09:23:38.954Z,1007.60
2023-05-21T09:24:39.841Z,1007.63
2023-05-21T09:25:40.728Z,1007.63
2023-05-21T09:26:41.580Z,1007.63
2023-05-21T09:27:42.601Z,1007.62
2023-05-21T09:28:43.487Z,1007.62
2023-05-21T09:29:44.412Z,1007.61
2023-05-21T09:30:45.268Z,1007.63
2023-05-21T09:33:54.671Z,1007.59
2023-05-21T09:34:55.197Z,1007.59
2023-05-21T09:35:55.962Z,1007.59
2023-05-21T09:40:43.107Z,1007.63
2023-05-21T09:41:44.137Z,1007.63
2023-05-21T09:42:44.761Z,1007.63
2023-05-21T09:47:30.277Z,1007.61
2023-05-21T09:48:30.163Z,1007.60
2023-05-21T09:49:31.124Z,1007.61
2023-05-21T09:50:31.972Z,1007.60
2023-05-21T09:51:32.834Z,1007.58
2023-05-21T09:52:33.696Z,1007.57
2023-05-21T09:53:34.605Z,1007.58
2023-05-21T09:54:35.491Z,1007.57
2023-05-21T09:57:32.580Z,1007.58
2023-05-21T09:58:32.589Z,1007.55
2023-05-21T09:59:33.165Z,1007.57
2023-05-21T10:00:34.259Z,1007.59
2023-05-21T10:01:34.317Z,1007.61
2023-05-21T10:02:35.299Z,1007.59
2023-05-21T10:03:36.164Z,1007.59
2023-05-21T10:08:48.760Z,1007.56
2023-05-21T10:09:49.291Z,1007.59
2023-05-21T10:10:49.722Z,1007.55
2023-05-21T10:11:50.591Z,1007.52
2023-05-21T10:12:51.503Z,1007.54
2023-05-21T10:13:52.510Z,1007.50
2023-05-21T10:14:52.870Z,1007.53
2023-05-21T10:17:56.398Z,1007.50
2023-05-21T10:18:56.902Z,1007.49
2023-05-21T10:19:57.908Z,1007.47
2023-05-21T10:23:12.063Z,1007.46
2023-05-21T10:24:12.697Z,1007.45
2023-05-21T10:27:08.608Z,1007.42
2023-05-21T10:30:16.544Z,1007.38
2023-05-21T10:31:17.091Z,1007.40
2023-05-21T10:32:18.196Z,1007.35
2023-05-21T10:33:18.689Z,1007.34
2023-05-21T10:34:19.614Z,1007.38
2023-05-21T10:35:20.488Z,1007.35
2023-05-21T10:36:21.327Z,1007.33
2023-05-21T10:37:22.416Z,1007.27
2023-05-21T10:40:23.629Z,1007.27
2023-05-21T10:41:23.950Z,1007.26
2023-05-21T10:42:24.890Z,1007.25
2023-05-21T10:43:25.748Z,1007.29
2023-05-21T10:44:26.657Z,1007.23
2023-05-21T10:45:27.548Z,1007.23
2023-05-21T10:46:28.572Z,1007.24
2023-05-21T10:47:28.971Z,1007.21
2023-05-21T10:48:29.953Z,1007.22
2023-05-21T10:51:51.777Z,1007.17
2023-05-21T10:53:00.170Z,1007.15
2023-05-21T10:58:16.305Z,1007.13
2023-05-21T10:59:16.962Z,1007.09
2023-05-21T11:00:17.684Z,1007.11
2023-05-21T11:01:18.379Z,1007.06
2023-05-21T11:02:18.862Z,1007.06
2023-05-21T11:05:15.728Z,1007.05
2023-05-21T11:10:51.340Z,1007.01
2023-05-21T11:11:51.534Z,1007.00
2023-05-21T11:14:47.910Z,1006.90
2023-05-21T11:18:49.045Z,1006.88
2023-05-21T11:19:49.939Z,1006.86
2023-05-21T11:20:50.796Z,1006.87
2023-05-21T11:21:51.636Z,1006.85
2023-05-21T11:22:52.500Z,1006.86
2023-05-21T11:23:53.643Z,1006.86
2023-05-21T11:24:53.977Z,1006.85
2023-05-21T11:25:54.921Z,1006.87
2023-05-21T11:26:55.813Z,1006.87
2023-05-21T11:27:56.734Z,1006.86
2023-05-21T11:37:51.284Z,1006.77
2023-05-21T11:38:53.041Z,1006.76
2023-05-21T11:39:52.587Z,1006.77
2023-05-21T11:40:53.340Z,1006.78
2023-05-21T11:45:03.231Z,1006.78
2023-05-21T11:50:54.002Z,1006.80
2023-05-21T11:51:54.652Z,1006.80
2023-05-21T11:53:17.244Z,1006.82
2023-05-21T12:07:00.128Z,1006.77
2023-05-21T12:10:02.795Z,1006.75
2023-05-21T12:14:25.829Z,1006.72
2023-05-21T12:18:31.504Z,1006.69
2023-05-21T12:19:32.504Z,1006.68
2023-05-21T12:20:33.007Z,1006.67
2023-05-21T12:21:33.849Z,1006.67
2023-05-21T12:22:35.172Z,1006.66
2023-05-21T12:23:35.532Z,1006.65
2023-05-21T12:24:36.459Z,1006.62
2023-05-21T12:25:37.325Z,1006.65
2023-05-21T12:26:38.190Z,1006.62
2023-05-21T12:27:39.077Z,1006.60
2023-05-21T12:28:39.941Z,1006.66
2023-05-21T12:29:50.848Z,1006.62
2023-05-21T12:30:41.743Z,1006.59
2023-05-21T12:31:42.677Z,1006.65
2023-05-21T12:32:43.580Z,1006.64
2023-05-21T12:33:44.566Z,1006.63
2023-05-21T12:34:45.038Z,1006.63
2023-05-21T13:05:44.506Z,1006.59
2023-05-21T13:08:46.996Z,1006.54
2023-05-21T13:09:47.987Z,1006.51
2023-05-21T13:10:48.859Z,1006.52
2023-05-21T13:11:49.753Z,1006.51
2023-05-21T13:12:50.718Z,1006.50
2023-05-21T13:13:51.426Z,1006.51
2023-05-21T13:14:52.597Z,1006.48
2023-05-21T13:15:52.970Z,1006.47
2023-05-21T13:16:53.983Z,1006.49
2023-05-21T13:17:56.567Z,1006.48
2023-05-21T13:18:54.924Z,1006.47
2023-05-21T13:19:55.784Z,1006.48
2023-05-21T13:20:56.734Z,1006.50
2023-05-21T13:21:57.592Z,1006.49
2023-05-21T13:22:58.465Z,1006.46
2023-05-21T13:23:59.349Z,1006.47
2023-05-21T13:25:00.229Z,1006.47
2023-05-21T13:26:01.130Z,1006.48
2023-05-21T13:27:02.027Z,1006.45
2023-05-21T13:28:02.891Z,1006.46
2023-05-21T13:29:03.787Z,1006.47
2023-05-21T13:30:04.772Z,1006.48
2023-05-21T13:31:05.631Z,1006.45
2023-05-21T13:32:06.521Z,1006.46
2023-05-21T13:33:07.470Z,1006.44
2023-05-21T13:36:08.517Z,1006.42
2023-05-21T13:37:09.444Z,1006.45
2023-05-21T13:38:10.349Z,1006.45
2023-05-21T13:39:11.542Z,1006.44
2023-05-21T13:40:11.926Z,1006.44
2023-05-21T13:54:32.797Z,1006.44
2023-05-21T14:03:06.216Z,1006.41
2023-05-21T14:04:06.677Z,1006.39
2023-05-21T14:05:07.579Z,1006.37
2023-05-21T14:06:08.515Z,1006.38
2023-05-21T14:07:09.484Z,1006.35
2023-05-21T14:13:21.353Z,1006.33
2023-05-21T14:14:21.812Z,1006.33
2023-05-21T14:15:22.760Z,1006.34
2023-05-21T14:16:23.746Z,1006.37
2023-05-21T14:17:24.250Z,1006.31
2023-05-21T14:18:24.637Z,1006.36
2023-05-21T14:19:25.793Z,1006.35
2023-05-21T14:22:52.052Z,1006.34
2023-05-21T14:31:31.933Z,1006.25
2023-05-21T14:32:32.591Z,1006.23
2023-05-21T14:33:33.029Z,1006.22
2023-05-21T14:34:33.980Z,1006.20
2023-05-21T14:35:35.042Z,1006.20
2023-05-21T14:36:35.506Z,1006.18
2023-05-21T14:37:36.419Z,1006.19
2023-05-21T14:38:37.266Z,1006.17
2023-05-21T14:39:38.152Z,1006.13
2023-05-21T14:40:39.051Z,1006.12
2023-05-21T14:41:39.963Z,1006.15
2023-05-21T14:45:17.442Z,1006.11
2023-05-21T14:46:03.890Z,1006.08
2023-05-21T14:47:03.391Z,1006.08
2023-05-21T14:48:04.336Z,1006.09
2023-05-21T14:49:05.304Z,1006.03
2023-05-21T14:50:06.138Z,1006.02
2023-05-21T14:51:07.017Z,1006.06
2023-05-21T14:52:07.917Z,1006.03
2023-05-21T14:53:08.850Z,1006.03
2023-05-21T14:54:09.701Z,1006.02
2023-05-21T14:55:10.580Z,1006.05
2023-05-21T14:56:11.509Z,1006.04
2023-05-21T14:57:12.364Z,1006.04
2023-05-21T14:58:13.234Z,1006.00
2023-05-21T14:59:14.129Z,1005.94
2023-05-21T15:00:15.000Z,1005.94
2023-05-21T15:01:15.946Z,1005.94
2023-05-21T15:02:16.868Z,1005.93
2023-05-21T15:03:17.465Z,1005.89
2023-05-21T15:04:18.362Z,1005.91
2023-05-21T15:05:19.230Z,1005.90
2023-05-21T15:06:20.104Z,1005.93
2023-05-21T15:07:20.989Z,1005.90
2023-05-21T15:08:21.867Z,1005.89
2023-05-21T15:09:22.731Z,1005.90
2023-05-21T15:10:23.614Z,1005.93
2023-05-21T15:11:24.479Z,1005.91
2023-05-21T15:12:25.371Z,1005.90
2023-05-21T15:13:26.287Z,1005.91
2023-05-21T15:16:32.677Z,1005.87
2023-05-21T15:22:01.409Z,1005.82
2023-05-21T15:23:15.853Z,1005.81
2023-05-21T15:29:07.204Z,1005.76
2023-05-21T15:30:08.160Z,1005.73
2023-05-21T15:31:09.140Z,1005.71
2023-05-21T15:32:10.091Z,1005.70
2023-05-21T15:33:10.993Z,1005.68
2023-05-21T15:34:11.999Z,1005.68
2023-05-21T15:44:37.302Z,1005.71
2023-05-21T15:45:38.773Z,1005.70
2023-05-21T15:46:39.164Z,1005.75
2023-05-21T15:47:41.255Z,1005.75
2023-05-21T15:48:40.471Z,1005.77
2023-05-21T15:49:41.400Z,1005.77
2023-05-21T15:50:42.256Z,1005.81
2023-05-21T15:51:43.147Z,1005.81
2023-05-21T15:52:44.005Z,1005.81
2023-05-21T15:53:44.880Z,1005.81
2023-05-21T15:54:45.742Z,1005.81
2023-05-21T15:55:46.621Z,1005.81
2023-05-21T15:56:47.479Z,1005.83
2023-05-21T15:57:48.375Z,1005.82
2023-05-21T15:58:49.372Z,1005.85
2023-05-21T15:59:50.349Z,1005.86
2023-05-21T16:00:51.257Z,1005.88
2023-05-21T16:01:52.250Z,1005.87
2023-05-21T16:02:53.177Z,1005.88
2023-05-21T16:03:54.053Z,1005.89
2023-05-21T16:04:55.035Z,1005.90
2023-05-21T16:05:55.912Z,1005.90
2023-05-21T16:06:56.768Z,1005.91
2023-05-21T16:07:57.687Z,1005.91
2023-05-21T16:08:58.542Z,1005.91
2023-05-21T16:09:59.443Z,1005.90
2023-05-21T16:11:00.444Z,1005.90
2023-05-21T16:12:00.825Z,1005.91
2023-05-21T16:13:01.725Z,1005.91
2023-05-21T16:14:02.584Z,1005.91
2023-05-21T16:15:03.496Z,1005.92
2023-05-21T16:16:04.453Z,1005.91
2023-05-21T16:17:05.328Z,1005.91
2023-05-21T16:18:05.793Z,1005.88
2023-05-21T16:19:06.695Z,1005.86
2023-05-21T16:20:07.568Z,1005.87